sensor_id;sensor_type;location;lat;lon;timestamp;P1;durP1;ratioP1;P2;durP2;ratioP2
37851;SDS011;23691;52.486;4.650;2023-05-14T00:00:15;25.65;;;12.68;;
37851;SDS011;23691;52.486;4.650;2023-05-14T00:02:41;24.52;;;13.05;;
37851;SDS011;23691;52.486;4.650;2023-05-14T00:05:07;23.80;;;13.38;;
37851;SDS011;23691;52.486;4.650;2023-05-14T00:07:34;25.08;;;13.40;;
37851;SDS011;23691;52.486;4.650;2023-05-14T00:09:59;23.58;;;12.77;;
37851;SDS011;23691;52.486;4.650;2023-05-14T00:12:25;27.30;;;13.88;;
37851;SDS011;23691;52.486;4.650;2023-05-14T00:14:51;26.40;;;12.63;;
37851;SDS011;23691;52.486;4.650;2023-05-14T00:17:17;26.02;;;13.40;;
37851;SDS011;23691;52.486;4.650;2023-05-14T00:19:43;25.05;;;12.75;;
37851;SDS011;23691;52.486;4.650;2023-05-14T00:22:08;25.23;;;13.02;;
37851;SDS011;23691;52.486;4.650;2023-05-14T00:24:34;24.45;;;13.07;;
37851;SDS011;23691;52.486;4.650;2023-05-14T00:26:59;23.27;;;12.60;;
37851;SDS011;23691;52.486;4.650;2023-05-14T00:29:25;23.25;;;12.63;;
37851;SDS011;23691;52.486;4.650;2023-05-14T00:31:50;23.33;;;12.82;;
37851;SDS011;23691;52.486;4.650;2023-05-14T00:34:16;22.40;;;12.90;;
37851;SDS011;23691;52.486;4.650;2023-05-14T00:36:41;22.35;;;12.10;;
37851;SDS011;23691;52.486;4.650;2023-05-14T00:39:06;19.45;;;11.65;;
37851;SDS011;23691;52.486;4.650;2023-05-14T00:41:32;21.77;;;11.45;;
37851;SDS011;23691;52.486;4.650;2023-05-14T00:43:57;23.70;;;12.02;;
37851;SDS011;23691;52.486;4.650;2023-05-14T00:46:23;22.58;;;11.90;;
37851;SDS011;23691;52.486;4.650;2023-05-14T00:48:48;23.60;;;12.15;;
37851;SDS011;23691;52.486;4.650;2023-05-14T00:51:14;21.02;;;11.07;;
37851;SDS011;23691;52.486;4.650;2023-05-14T00:53:40;21.75;;;10.85;;
37851;SDS011;23691;52.486;4.650;2023-05-14T00:56:06;18.85;;;10.57;;
37851;SDS011;23691;52.486;4.650;2023-05-14T00:58:32;19.73;;;10.88;;
37851;SDS011;23691;52.486;4.650;2023-05-14T01:00:57;21.40;;;10.35;;
37851;SDS011;23691;52.486;4.650;2023-05-14T01:03:23;19.48;;;10.38;;
37851;SDS011;23691;52.486;4.650;2023-05-14T01:08:20;17.08;;;10.00;;
37851;SDS011;23691;52.486;4.650;2023-05-14T01:10:56;18.65;;;10.07;;
37851;SDS011;23691;52.486;4.650;2023-05-14T01:13:43;19.95;;;10.23;;
37851;SDS011;23691;52.486;4.650;2023-05-14T01:16:17;23.52;;;10.25;;
37851;SDS011;23691;52.486;4.650;2023-05-14T01:18:43;17.65;;;9.52;;
37851;SDS011;23691;52.486;4.650;2023-05-14T01:21:23;21.92;;;10.27;;
37851;SDS011;23691;52.486;4.650;2023-05-14T01:23:49;18.42;;;9.80;;
37851;SDS011;23691;52.486;4.650;2023-05-14T01:26:14;24.55;;;10.50;;
37851;SDS011;23691;52.486;4.650;2023-05-14T01:28:39;21.30;;;10.38;;
37851;SDS011;23691;52.486;4.650;2023-05-14T01:31:07;19.40;;;10.20;;
37851;SDS011;23691;52.486;4.650;2023-05-14T01:33:39;17.48;;;10.68;;
37851;SDS011;23691;52.486;4.650;2023-05-14T01:36:07;19.63;;;10.55;;
37851;SDS011;23691;52.486;4.650;2023-05-14T01:38:33;21.73;;;11.05;;
37851;SDS011;23691;52.486;4.650;2023-05-14T01:41:00;20.20;;;11.25;;
37851;SDS011;23691;52.486;4.650;2023-05-14T01:43:26;20.77;;;11.30;;
37851;SDS011;23691;52.486;4.650;2023-05-14T01:45:52;21.00;;;11.23;;
37851;SDS011;23691;52.486;4.650;2023-05-14T01:48:19;22.10;;;11.35;;
37851;SDS011;23691;52.486;4.650;2023-05-14T01:50:45;21.73;;;11.00;;
37851;SDS011;23691;52.486;4.650;2023-05-14T01:53:10;19.05;;;10.63;;
37851;SDS011;23691;52.486;4.650;2023-05-14T01:55:35;20.80;;;10.55;;
37851;SDS011;23691;52.486;4.650;2023-05-14T01:58:01;19.73;;;10.95;;
37851;SDS011;23691;52.486;4.650;2023-05-14T02:00:26;21.10;;;11.23;;
37851;SDS011;23691;52.486;4.650;2023-05-14T02:02:51;20.50;;;11.13;;
37851;SDS011;23691;52.486;4.650;2023-05-14T02:05:17;20.63;;;11.07;;
37851;SDS011;23691;52.486;4.650;2023-05-14T02:07:42;19.60;;;10.85;;
37851;SDS011;23691;52.486;4.650;2023-05-14T02:10:08;20.05;;;11.32;;
37851;SDS011;23691;52.486;4.650;2023-05-14T02:12:34;21.40;;;11.93;;
37851;SDS011;23691;52.486;4.650;2023-05-14T02:15:00;25.42;;;12.55;;
37851;SDS011;23691;52.486;4.650;2023-05-14T02:17:26;21.40;;;11.85;;
37851;SDS011;23691;52.486;4.650;2023-05-14T02:19:51;21.48;;;12.57;;
37851;SDS011;23691;52.486;4.650;2023-05-14T02:22:17;22.88;;;13.38;;
37851;SDS011;23691;52.486;4.650;2023-05-14T02:24:42;25.92;;;13.80;;
37851;SDS011;23691;52.486;4.650;2023-05-14T02:27:07;25.63;;;14.65;;
37851;SDS011;23691;52.486;4.650;2023-05-14T02:29:33;29.67;;;15.52;;
37851;SDS011;23691;52.486;4.650;2023-05-14T02:31:58;27.67;;;15.73;;
37851;SDS011;23691;52.486;4.650;2023-05-14T02:34:23;27.05;;;16.88;;
37851;SDS011;23691;52.486;4.650;2023-05-14T02:36:49;31.23;;;17.13;;
37851;SDS011;23691;52.486;4.650;2023-05-14T02:39:14;37.38;;;18.60;;
37851;SDS011;23691;52.486;4.650;2023-05-14T02:41:40;31.83;;;18.35;;
37851;SDS011;23691;52.486;4.650;2023-05-14T02:44:05;31.27;;;17.70;;
37851;SDS011;23691;52.486;4.650;2023-05-14T02:46:31;31.65;;;18.05;;
37851;SDS011;23691;52.486;4.650;2023-05-14T02:48:56;32.80;;;18.50;;
37851;SDS011;23691;52.486;4.650;2023-05-14T02:51:22;29.77;;;18.27;;
37851;SDS011;23691;52.486;4.650;2023-05-14T02:53:47;29.90;;;18.50;;
37851;SDS011;23691;52.486;4.650;2023-05-14T02:56:13;29.70;;;18.33;;
37851;SDS011;23691;52.486;4.650;2023-05-14T02:58:38;35.38;;;19.42;;
37851;SDS011;23691;52.486;4.650;2023-05-14T03:01:03;30.25;;;19.33;;
37851;SDS011;23691;52.486;4.650;2023-05-14T03:03:29;30.50;;;19.58;;
37851;SDS011;23691;52.486;4.650;2023-05-14T03:05:55;34.67;;;20.02;;
37851;SDS011;23691;52.486;4.650;2023-05-14T03:08:20;32.40;;;19.48;;
37851;SDS011;23691;52.486;4.650;2023-05-14T03:10:46;33.45;;;19.88;;
37851;SDS011;23691;52.486;4.650;2023-05-14T03:13:11;34.53;;;20.50;;
37851;SDS011;23691;52.486;4.650;2023-05-14T03:15:37;33.60;;;21.23;;
37851;SDS011;23691;52.486;4.650;2023-05-14T03:18:02;31.48;;;21.25;;
37851;SDS011;23691;52.486;4.650;2023-05-14T03:20:27;32.40;;;20.48;;
37851;SDS011;23691;52.486;4.650;2023-05-14T03:22:53;36.33;;;21.55;;
37851;SDS011;23691;52.486;4.650;2023-05-14T03:25:20;39.00;;;21.45;;
37851;SDS011;23691;52.486;4.650;2023-05-14T03:27:45;35.33;;;21.30;;
37851;SDS011;23691;52.486;4.650;2023-05-14T03:30:11;34.30;;;21.02;;
37851;SDS011;23691;52.486;4.650;2023-05-14T03:32:36;35.50;;;21.27;;
37851;SDS011;23691;52.486;4.650;2023-05-14T03:35:02;35.25;;;21.63;;
37851;SDS011;23691;52.486;4.650;2023-05-14T03:37:27;35.72;;;22.50;;
37851;SDS011;23691;52.486;4.650;2023-05-14T03:39:52;34.40;;;21.67;;
37851;SDS011;23691;52.486;4.650;2023-05-14T03:42:18;38.15;;;23.45;;
37851;SDS011;23691;52.486;4.650;2023-05-14T03:44:43;37.75;;;23.27;;
37851;SDS011;23691;52.486;4.650;2023-05-14T03:47:09;38.45;;;22.35;;
37851;SDS011;23691;52.486;4.650;2023-05-14T03:49:34;42.22;;;24.33;;
37851;SDS011;23691;52.486;4.650;2023-05-14T03:52:00;38.90;;;23.42;;
37851;SDS011;23691;52.486;4.650;2023-05-14T03:54:25;40.92;;;24.70;;
37851;SDS011;23691;52.486;4.650;2023-05-14T03:56:50;38.85;;;25.08;;
37851;SDS011;23691;52.486;4.650;2023-05-14T03:59:16;46.72;;;25.83;;
37851;SDS011;23691;52.486;4.650;2023-05-14T04:01:42;42.97;;;26.55;;
37851;SDS011;23691;52.486;4.650;2023-05-14T04:04:11;44.83;;;26.52;;
37851;SDS011;23691;52.486;4.650;2023-05-14T04:06:36;45.60;;;26.58;;
37851;SDS011;23691;52.486;4.650;2023-05-14T04:09:02;40.58;;;26.20;;
37851;SDS011;23691;52.486;4.650;2023-05-14T04:11:27;37.22;;;24.52;;
37851;SDS011;23691;52.486;4.650;2023-05-14T04:13:53;40.40;;;25.13;;
37851;SDS011;23691;52.486;4.650;2023-05-14T04:16:18;40.33;;;24.65;;
37851;SDS011;23691;52.486;4.650;2023-05-14T04:18:43;37.50;;;22.35;;
37851;SDS011;23691;52.486;4.650;2023-05-14T04:21:09;41.35;;;23.80;;
37851;SDS011;23691;52.486;4.650;2023-05-14T04:23:35;35.40;;;23.02;;
37851;SDS011;23691;52.486;4.650;2023-05-14T04:26:00;34.13;;;21.23;;
37851;SDS011;23691;52.486;4.650;2023-05-14T04:28:26;34.67;;;22.52;;
37851;SDS011;23691;52.486;4.650;2023-05-14T04:30:51;38.50;;;21.95;;
37851;SDS011;23691;52.486;4.650;2023-05-14T04:33:17;36.30;;;21.25;;
37851;SDS011;23691;52.486;4.650;2023-05-14T04:35:43;33.40;;;20.55;;
37851;SDS011;23691;52.486;4.650;2023-05-14T04:38:09;34.67;;;22.02;;
37851;SDS011;23691;52.486;4.650;2023-05-14T04:40:35;34.28;;;20.92;;
37851;SDS011;23691;52.486;4.650;2023-05-14T04:43:00;32.60;;;20.40;;
37851;SDS011;23691;52.486;4.650;2023-05-14T04:45:26;35.10;;;20.30;;
37851;SDS011;23691;52.486;4.650;2023-05-14T04:47:51;32.17;;;20.65;;
37851;SDS011;23691;52.486;4.650;2023-05-14T04:50:16;32.58;;;20.83;;
37851;SDS011;23691;52.486;4.650;2023-05-14T04:52:42;35.47;;;20.10;;
37851;SDS011;23691;52.486;4.650;2023-05-14T04:55:07;32.42;;;20.67;;
37851;SDS011;23691;52.486;4.650;2023-05-14T04:57:33;34.75;;;20.05;;
37851;SDS011;23691;52.486;4.650;2023-05-14T04:59:58;33.05;;;20.77;;
37851;SDS011;23691;52.486;4.650;2023-05-14T05:02:24;33.05;;;19.80;;
37851;SDS011;23691;52.486;4.650;2023-05-14T05:04:49;32.92;;;19.35;;
37851;SDS011;23691;52.486;4.650;2023-05-14T05:07:15;30.60;;;19.85;;
37851;SDS011;23691;52.486;4.650;2023-05-14T05:09:41;32.42;;;19.05;;
37851;SDS011;23691;52.486;4.650;2023-05-14T05:12:07;34.20;;;18.92;;
37851;SDS011;23691;52.486;4.650;2023-05-14T05:14:32;30.48;;;17.90;;
37851;SDS011;23691;52.486;4.650;2023-05-14T05:16:57;31.38;;;17.58;;
37851;SDS011;23691;52.486;4.650;2023-05-14T05:19:23;37.30;;;18.05;;
37851;SDS011;23691;52.486;4.650;2023-05-14T05:21:48;32.33;;;17.20;;
37851;SDS011;23691;52.486;4.650;2023-05-14T05:24:13;31.33;;;16.65;;
37851;SDS011;23691;52.486;4.650;2023-05-14T05:26:39;29.95;;;16.30;;
37851;SDS011;23691;52.486;4.650;2023-05-14T05:29:05;35.40;;;16.15;;
37851;SDS011;23691;52.486;4.650;2023-05-14T05:31:31;30.63;;;16.55;;
37851;SDS011;23691;52.486;4.650;2023-05-14T05:33:58;29.25;;;15.73;;
37851;SDS011;23691;52.486;4.650;2023-05-14T05:36:24;27.20;;;15.07;;
37851;SDS011;23691;52.486;4.650;2023-05-14T05:38:50;30.58;;;14.88;;
37851;SDS011;23691;52.486;4.650;2023-05-14T05:41:15;29.00;;;15.07;;
37851;SDS011;23691;52.486;4.650;2023-05-14T05:43:40;30.77;;;14.35;;
37851;SDS011;23691;52.486;4.650;2023-05-14T05:46:06;28.13;;;14.25;;
37851;SDS011;23691;52.486;4.650;2023-05-14T05:48:31;27.13;;;13.40;;
37851;SDS011;23691;52.486;4.650;2023-05-14T05:50:56;26.95;;;13.18;;
37851;SDS011;23691;52.486;4.650;2023-05-14T05:53:22;23.73;;;12.55;;
37851;SDS011;23691;52.486;4.650;2023-05-14T05:55:47;28.08;;;12.70;;
37851;SDS011;23691;52.486;4.650;2023-05-14T05:58:15;27.58;;;12.25;;
37851;SDS011;23691;52.486;4.650;2023-05-14T06:00:41;23.55;;;11.70;;
37851;SDS011;23691;52.486;4.650;2023-05-14T06:03:06;25.02;;;11.55;;
37851;SDS011;23691;52.486;4.650;2023-05-14T06:05:31;30.55;;;11.60;;
37851;SDS011;23691;52.486;4.650;2023-05-14T06:07:57;27.02;;;10.82;;
37851;SDS011;23691;52.486;4.650;2023-05-14T06:10:22;27.30;;;10.55;;
37851;SDS011;23691;52.486;4.650;2023-05-14T06:12:48;22.60;;;10.45;;
37851;SDS011;23691;52.486;4.650;2023-05-14T06:15:13;18.50;;;9.18;;
37851;SDS011;23691;52.486;4.650;2023-05-14T06:17:39;28.60;;;10.57;;
37851;SDS011;23691;52.486;4.650;2023-05-14T06:20:04;21.73;;;10.70;;
37851;SDS011;23691;52.486;4.650;2023-05-14T06:22:32;25.83;;;11.23;;
37851;SDS011;23691;52.486;4.650;2023-05-14T06:24:57;26.45;;;11.43;;
37851;SDS011;23691;52.486;4.650;2023-05-14T06:27:23;23.88;;;11.98;;
37851;SDS011;23691;52.486;4.650;2023-05-14T06:29:48;27.00;;;11.95;;
37851;SDS011;23691;52.486;4.650;2023-05-14T06:32:14;28.45;;;11.40;;
37851;SDS011;23691;52.486;4.650;2023-05-14T06:34:40;25.77;;;12.25;;
37851;SDS011;23691;52.486;4.650;2023-05-14T06:37:08;22.45;;;12.35;;
37851;SDS011;23691;52.486;4.650;2023-05-14T06:39:37;27.88;;;12.05;;
37851;SDS011;23691;52.486;4.650;2023-05-14T06:42:03;26.38;;;12.15;;
37851;SDS011;23691;52.486;4.650;2023-05-14T06:44:28;23.23;;;12.38;;
37851;SDS011;23691;52.486;4.650;2023-05-14T06:46:53;25.92;;;12.35;;
37851;SDS011;23691;52.486;4.650;2023-05-14T06:49:19;25.88;;;12.05;;
37851;SDS011;23691;52.486;4.650;2023-05-14T06:51:45;26.15;;;12.68;;
37851;SDS011;23691;52.486;4.650;2023-05-14T06:54:10;24.83;;;12.32;;
37851;SDS011;23691;52.486;4.650;2023-05-14T06:56:36;27.88;;;12.23;;
37851;SDS011;23691;52.486;4.650;2023-05-14T06:59:01;23.55;;;12.63;;
37851;SDS011;23691;52.486;4.650;2023-05-14T07:01:27;26.08;;;11.77;;
37851;SDS011;23691;52.486;4.650;2023-05-14T07:03:52;26.20;;;11.93;;
37851;SDS011;23691;52.486;4.650;2023-05-14T07:06:17;27.83;;;11.10;;
37851;SDS011;23691;52.486;4.650;2023-05-14T07:08:43;24.75;;;11.27;;
37851;SDS011;23691;52.486;4.650;2023-05-14T07:11:11;23.60;;;10.40;;
37851;SDS011;23691;52.486;4.650;2023-05-14T07:13:37;25.67;;;10.13;;
37851;SDS011;23691;52.486;4.650;2023-05-14T07:16:03;20.25;;;9.07;;
37851;SDS011;23691;52.486;4.650;2023-05-14T07:18:28;18.75;;;8.57;;
37851;SDS011;23691;52.486;4.650;2023-05-14T07:20:54;20.17;;;7.88;;
37851;SDS011;23691;52.486;4.650;2023-05-14T07:23:19;21.48;;;8.40;;
37851;SDS011;23691;52.486;4.650;2023-05-14T07:25:44;21.63;;;7.60;;
37851;SDS011;23691;52.486;4.650;2023-05-14T07:28:10;19.65;;;7.57;;
37851;SDS011;23691;52.486;4.650;2023-05-14T07:30:35;21.10;;;7.22;;
37851;SDS011;23691;52.486;4.650;2023-05-14T07:33:01;17.63;;;7.20;;
37851;SDS011;23691;52.486;4.650;2023-05-14T07:35:26;17.50;;;6.72;;
37851;SDS011;23691;52.486;4.650;2023-05-14T07:37:51;19.50;;;6.10;;
37851;SDS011;23691;52.486;4.650;2023-05-14T07:40:17;18.73;;;6.35;;
37851;SDS011;23691;52.486;4.650;2023-05-14T07:42:42;17.73;;;6.88;;
37851;SDS011;23691;52.486;4.650;2023-05-14T07:45:08;20.15;;;6.45;;
37851;SDS011;23691;52.486;4.650;2023-05-14T07:47:33;16.95;;;6.18;;
37851;SDS011;23691;52.486;4.650;2023-05-14T07:49:59;15.50;;;5.65;;
37851;SDS011;23691;52.486;4.650;2023-05-14T07:52:24;14.45;;;5.43;;
37851;SDS011;23691;52.486;4.650;2023-05-14T07:54:50;16.95;;;5.60;;
37851;SDS011;23691;52.486;4.650;2023-05-14T07:57:16;21.20;;;6.07;;
37851;SDS011;23691;52.486;4.650;2023-05-14T07:59:42;16.27;;;5.53;;
37851;SDS011;23691;52.486;4.650;2023-05-14T08:02:07;18.15;;;5.25;;
37851;SDS011;23691;52.486;4.650;2023-05-14T08:04:34;17.70;;;5.38;;
37851;SDS011;23691;52.486;4.650;2023-05-14T08:07:00;15.88;;;5.07;;
37851;SDS011;23691;52.486;4.650;2023-05-14T08:09:25;18.75;;;5.25;;
37851;SDS011;23691;52.486;4.650;2023-05-14T08:11:51;15.07;;;4.68;;
37851;SDS011;23691;52.486;4.650;2023-05-14T08:14:16;15.05;;;5.00;;
37851;SDS011;23691;52.486;4.650;2023-05-14T08:16:41;17.52;;;4.97;;
37851;SDS011;23691;52.486;4.650;2023-05-14T08:19:07;15.93;;;4.70;;
37851;SDS011;23691;52.486;4.650;2023-05-14T08:21:32;17.08;;;4.82;;
37851;SDS011;23691;52.486;4.650;2023-05-14T08:23:57;18.60;;;5.10;;
37851;SDS011;23691;52.486;4.650;2023-05-14T08:26:23;17.88;;;4.82;;
37851;SDS011;23691;52.486;4.650;2023-05-14T08:28:48;14.20;;;4.75;;
37851;SDS011;23691;52.486;4.650;2023-05-14T08:31:13;13.77;;;4.63;;
37851;SDS011;23691;52.486;4.650;2023-05-14T08:33:39;18.38;;;4.93;;
37851;SDS011;23691;52.486;4.650;2023-05-14T08:36:05;15.52;;;4.85;;
37851;SDS011;23691;52.486;4.650;2023-05-14T08:38:31;13.23;;;4.60;;
37851;SDS011;23691;52.486;4.650;2023-05-14T08:40:57;16.15;;;4.70;;
37851;SDS011;23691;52.486;4.650;2023-05-14T08:43:26;15.65;;;4.20;;
37851;SDS011;23691;52.486;4.650;2023-05-14T08:45:59;15.20;;;4.10;;
37851;SDS011;23691;52.486;4.650;2023-05-14T08:48:30;14.48;;;4.13;;
37851;SDS011;23691;52.486;4.650;2023-05-14T08:50:57;16.60;;;4.38;;
37851;SDS011;23691;52.486;4.650;2023-05-14T08:53:23;17.58;;;4.50;;
37851;SDS011;23691;52.486;4.650;2023-05-14T08:55:49;15.10;;;4.57;;
37851;SDS011;23691;52.486;4.650;2023-05-14T08:58:15;16.77;;;4.88;;
37851;SDS011;23691;52.486;4.650;2023-05-14T09:00:41;13.73;;;4.10;;
37851;SDS011;23691;52.486;4.650;2023-05-14T09:03:06;17.10;;;4.72;;
37851;SDS011;23691;52.486;4.650;2023-05-14T09:05:32;12.32;;;4.28;;
37851;SDS011;23691;52.486;4.650;2023-05-14T09:07:58;14.32;;;4.18;;
37851;SDS011;23691;52.486;4.650;2023-05-14T09:10:23;13.43;;;3.80;;
37851;SDS011;23691;52.486;4.650;2023-05-14T09:12:49;13.57;;;3.83;;
37851;SDS011;23691;52.486;4.650;2023-05-14T09:15:14;12.18;;;3.47;;
37851;SDS011;23691;52.486;4.650;2023-05-14T09:17:39;12.57;;;3.60;;
37851;SDS011;23691;52.486;4.650;2023-05-14T09:20:05;15.10;;;3.50;;
37851;SDS011;23691;52.486;4.650;2023-05-14T09:22:31;12.77;;;3.70;;
37851;SDS011;23691;52.486;4.650;2023-05-14T09:25:02;10.65;;;3.33;;
37851;SDS011;23691;52.486;4.650;2023-05-14T09:27:33;13.80;;;3.83;;
37851;SDS011;23691;52.486;4.650;2023-05-14T09:30:18;12.20;;;3.50;;
37851;SDS011;23691;52.486;4.650;2023-05-14T09:32:43;10.55;;;3.30;;
37851;SDS011;23691;52.486;4.650;2023-05-14T09:37:41;13.95;;;3.00;;
37851;SDS011;23691;52.486;4.650;2023-05-14T09:40:08;12.82;;;3.28;;
37851;SDS011;23691;52.486;4.650;2023-05-14T09:42:34;14.48;;;3.00;;
37851;SDS011;23691;52.486;4.650;2023-05-14T09:44:59;13.70;;;3.22;;
37851;SDS011;23691;52.486;4.650;2023-05-14T09:47:25;14.27;;;3.42;;
37851;SDS011;23691;52.486;4.650;2023-05-14T09:49:51;12.52;;;2.75;;
37851;SDS011;23691;52.486;4.650;2023-05-14T09:52:19;15.02;;;2.72;;
37851;SDS011;23691;52.486;4.650;2023-05-14T09:54:45;12.43;;;2.70;;
37851;SDS011;23691;52.486;4.650;2023-05-14T09:57:11;12.50;;;2.97;;
37851;SDS011;23691;52.486;4.650;2023-05-14T09:59:36;17.75;;;2.58;;
37851;SDS011;23691;52.486;4.650;2023-05-14T10:02:01;19.45;;;2.90;;
37851;SDS011;23691;52.486;4.650;2023-05-14T10:06:55;14.32;;;2.83;;
37851;SDS011;23691;52.486;4.650;2023-05-14T10:09:21;19.67;;;3.03;;
37851;SDS011;23691;52.486;4.650;2023-05-14T10:11:50;15.45;;;3.20;;
37851;SDS011;23691;52.486;4.650;2023-05-14T10:14:25;17.05;;;2.80;;
37851;SDS011;23691;52.486;4.650;2023-05-14T10:16:53;15.07;;;2.92;;
37851;SDS011;23691;52.486;4.650;2023-05-14T10:19:21;14.60;;;2.77;;
37851;SDS011;23691;52.486;4.650;2023-05-14T10:21:52;16.88;;;2.80;;
37851;SDS011;23691;52.486;4.650;2023-05-14T10:24:20;14.57;;;2.55;;
37851;SDS011;23691;52.486;4.650;2023-05-14T10:26:46;14.80;;;2.58;;
37851;SDS011;23691;52.486;4.650;2023-05-14T10:29:12;14.15;;;2.72;;
37851;SDS011;23691;52.486;4.650;2023-05-14T10:31:53;17.08;;;2.80;;
37851;SDS011;23691;52.486;4.650;2023-05-14T10:37:11;13.32;;;2.67;;
37851;SDS011;23691;52.486;4.650;2023-05-14T10:39:43;15.60;;;3.05;;
37851;SDS011;23691;52.486;4.650;2023-05-14T10:42:12;13.13;;;2.50;;
37851;SDS011;23691;52.486;4.650;2023-05-14T10:44:51;13.52;;;2.63;;
37851;SDS011;23691;52.486;4.650;2023-05-14T10:47:19;16.45;;;2.63;;
37851;SDS011;23691;52.486;4.650;2023-05-14T10:49:45;13.60;;;2.63;;
37851;SDS011;23691;52.486;4.650;2023-05-14T10:52:17;14.55;;;2.67;;
37851;SDS011;23691;52.486;4.650;2023-05-14T10:54:53;17.40;;;2.72;;
37851;SDS011;23691;52.486;4.650;2023-05-14T10:57:26;16.38;;;2.47;;
37851;SDS011;23691;52.486;4.650;2023-05-14T10:59:53;16.58;;;2.70;;
37851;SDS011;23691;52.486;4.650;2023-05-14T11:05:00;13.82;;;2.33;;
37851;SDS011;23691;52.486;4.650;2023-05-14T11:07:33;15.55;;;2.75;;
37851;SDS011;23691;52.486;4.650;2023-05-14T11:10:01;9.68;;;2.28;;
37851;SDS011;23691;52.486;4.650;2023-05-14T11:12:30;15.18;;;2.53;;
37851;SDS011;23691;52.486;4.650;2023-05-14T11:14:57;10.13;;;2.08;;
37851;SDS011;23691;52.486;4.650;2023-05-14T11:17:24;12.82;;;2.30;;
37851;SDS011;23691;52.486;4.650;2023-05-14T11:19:53;13.60;;;2.42;;
37851;SDS011;23691;52.486;4.650;2023-05-14T11:22:40;18.00;;;2.78;;
37851;SDS011;23691;52.486;4.650;2023-05-14T11:25:06;10.57;;;2.38;;
37851;SDS011;23691;52.486;4.650;2023-05-14T11:27:33;12.20;;;2.30;;
37851;SDS011;23691;52.486;4.650;2023-05-14T11:30:00;15.70;;;2.80;;
37851;SDS011;23691;52.486;4.650;2023-05-14T11:32:25;11.90;;;3.00;;
37851;SDS011;23691;52.486;4.650;2023-05-14T11:34:51;13.52;;;2.55;;
37851;SDS011;23691;52.486;4.650;2023-05-14T11:37:17;11.93;;;2.40;;
37851;SDS011;23691;52.486;4.650;2023-05-14T11:39:46;13.68;;;2.55;;
37851;SDS011;23691;52.486;4.650;2023-05-14T11:42:17;10.80;;;2.60;;
37851;SDS011;23691;52.486;4.650;2023-05-14T11:44:46;14.95;;;2.70;;
37851;SDS011;23691;52.486;4.650;2023-05-14T11:47:13;12.88;;;2.53;;
37851;SDS011;23691;52.486;4.650;2023-05-14T11:49:39;12.95;;;3.05;;
37851;SDS011;23691;52.486;4.650;2023-05-14T11:52:05;14.98;;;2.85;;
37851;SDS011;23691;52.486;4.650;2023-05-14T11:54:34;11.45;;;2.67;;
37851;SDS011;23691;52.486;4.650;2023-05-14T11:57:09;18.13;;;3.17;;
37851;SDS011;23691;52.486;4.650;2023-05-14T11:59:36;17.77;;;3.13;;
37851;SDS011;23691;52.486;4.650;2023-05-14T12:02:03;15.75;;;3.00;;
37851;SDS011;23691;52.486;4.650;2023-05-14T12:04:29;16.50;;;2.75;;
37851;SDS011;23691;52.486;4.650;2023-05-14T12:06:56;14.63;;;3.10;;
37851;SDS011;23691;52.486;4.650;2023-05-14T12:11:48;10.67;;;3.30;;
37851;SDS011;23691;52.486;4.650;2023-05-14T12:14:15;13.07;;;3.20;;
37851;SDS011;23691;52.486;4.650;2023-05-14T12:16:42;14.90;;;3.42;;
37851;SDS011;23691;52.486;4.650;2023-05-14T12:19:09;13.73;;;3.95;;
37851;SDS011;23691;52.486;4.650;2023-05-14T12:21:38;13.63;;;3.97;;
37851;SDS011;23691;52.486;4.650;2023-05-14T12:24:07;15.45;;;4.68;;
37851;SDS011;23691;52.486;4.650;2023-05-14T12:26:34;12.65;;;4.05;;
37851;SDS011;23691;52.486;4.650;2023-05-14T12:29:00;14.52;;;4.68;;
37851;SDS011;23691;52.486;4.650;2023-05-14T12:31:26;13.48;;;4.70;;
37851;SDS011;23691;52.486;4.650;2023-05-14T12:33:53;13.20;;;4.40;;
37851;SDS011;23691;52.486;4.650;2023-05-14T12:36:18;15.80;;;4.13;;
37851;SDS011;23691;52.486;4.650;2023-05-14T12:38:44;11.88;;;4.15;;
37851;SDS011;23691;52.486;4.650;2023-05-14T12:41:09;14.73;;;4.05;;
37851;SDS011;23691;52.486;4.650;2023-05-14T12:43:35;16.58;;;3.80;;
37851;SDS011;23691;52.486;4.650;2023-05-14T12:46:00;11.02;;;3.42;;
37851;SDS011;23691;52.486;4.650;2023-05-14T12:48:25;13.93;;;3.60;;
37851;SDS011;23691;52.486;4.650;2023-05-14T12:50:51;12.55;;;3.05;;
37851;SDS011;23691;52.486;4.650;2023-05-14T12:53:16;12.88;;;3.13;;
37851;SDS011;23691;52.486;4.650;2023-05-14T12:55:42;16.25;;;2.88;;
37851;SDS011;23691;52.486;4.650;2023-05-14T12:58:07;11.40;;;2.63;;
37851;SDS011;23691;52.486;4.650;2023-05-14T13:00:32;13.93;;;2.80;;
37851;SDS011;23691;52.486;4.650;2023-05-14T13:02:58;9.75;;;2.70;;
37851;SDS011;23691;52.486;4.650;2023-05-14T13:05:23;11.68;;;2.38;;
37851;SDS011;23691;52.486;4.650;2023-05-14T13:07:50;9.52;;;2.22;;
37851;SDS011;23691;52.486;4.650;2023-05-14T13:10:16;14.38;;;2.90;;
37851;SDS011;23691;52.486;4.650;2023-05-14T13:12:42;11.75;;;2.53;;
37851;SDS011;23691;52.486;4.650;2023-05-14T13:15:08;13.57;;;2.50;;
37851;SDS011;23691;52.486;4.650;2023-05-14T13:17:34;9.45;;;2.33;;
37851;SDS011;23691;52.486;4.650;2023-05-14T13:20:00;14.27;;;2.60;;
37851;SDS011;23691;52.486;4.650;2023-05-14T13:22:25;10.18;;;2.33;;
37851;SDS011;23691;52.486;4.650;2023-05-14T13:24:51;12.80;;;2.60;;
37851;SDS011;23691;52.486;4.650;2023-05-14T13:27:16;13.20;;;2.47;;
37851;SDS011;23691;52.486;4.650;2023-05-14T13:29:41;13.90;;;2.42;;
37851;SDS011;23691;52.486;4.650;2023-05-14T13:32:07;13.02;;;2.42;;
37851;SDS011;23691;52.486;4.650;2023-05-14T13:34:39;10.63;;;2.30;;
37851;SDS011;23691;52.486;4.650;2023-05-14T13:37:08;16.30;;;2.58;;
37851;SDS011;23691;52.486;4.650;2023-05-14T13:39:33;15.30;;;2.30;;
37851;SDS011;23691;52.486;4.650;2023-05-14T13:41:59;12.57;;;2.75;;
37851;SDS011;23691;52.486;4.650;2023-05-14T13:44:25;11.57;;;2.75;;
37851;SDS011;23691;52.486;4.650;2023-05-14T13:46:51;9.48;;;2.30;;
37851;SDS011;23691;52.486;4.650;2023-05-14T13:49:16;11.23;;;2.60;;
37851;SDS011;23691;52.486;4.650;2023-05-14T13:51:42;16.27;;;2.63;;
37851;SDS011;23691;52.486;4.650;2023-05-14T13:54:07;12.23;;;2.45;;
37851;SDS011;23691;52.486;4.650;2023-05-14T13:56:33;12.88;;;2.28;;
37851;SDS011;23691;52.486;4.650;2023-05-14T13:58:58;14.63;;;2.85;;
37851;SDS011;23691;52.486;4.650;2023-05-14T14:01:24;12.60;;;2.15;;
37851;SDS011;23691;52.486;4.650;2023-05-14T14:03:49;14.23;;;2.95;;
37851;SDS011;23691;52.486;4.650;2023-05-14T14:06:14;13.57;;;2.40;;
37851;SDS011;23691;52.486;4.650;2023-05-14T14:08:40;13.23;;;2.47;;
37851;SDS011;23691;52.486;4.650;2023-05-14T14:11:05;13.45;;;2.55;;
37851;SDS011;23691;52.486;4.650;2023-05-14T14:13:31;11.75;;;2.45;;
37851;SDS011;23691;52.486;4.650;2023-05-14T14:15:56;14.45;;;2.60;;
37851;SDS011;23691;52.486;4.650;2023-05-14T14:18:21;11.90;;;2.85;;
37851;SDS011;23691;52.486;4.650;2023-05-14T14:20:47;11.85;;;2.35;;
37851;SDS011;23691;52.486;4.650;2023-05-14T14:23:12;11.52;;;2.30;;
37851;SDS011;23691;52.486;4.650;2023-05-14T14:25:37;10.00;;;2.08;;
37851;SDS011;23691;52.486;4.650;2023-05-14T14:28:03;10.50;;;2.17;;
37851;SDS011;23691;52.486;4.650;2023-05-14T14:30:28;11.98;;;2.25;;
37851;SDS011;23691;52.486;4.650;2023-05-14T14:32:54;14.45;;;2.80;;
37851;SDS011;23691;52.486;4.650;2023-05-14T14:35:19;12.25;;;2.05;;
37851;SDS011;23691;52.486;4.650;2023-05-14T14:37:45;11.77;;;2.80;;